Time;durP1;ratioP1;P1;durP2;ratioP2;P2;SDS_P1;SDS_P2;PMS_P1;PMS_P2;Temp;Humidity;BMP_temperature;BMP_pressure;BME280_temperature;BME280_humidity;BME280_pressure;Samples;Min_cycle;Max_cycle;Signal;HPM_P1;HPM_P2
2021/11/15 00:02:23;;;;;;;2.47;1.77;;;;;;;6.65;76.16;103188.13;5071765;28;20035;-81
2021/11/15 00:04:49;;;;;;;3.17;2.10;;;;;;;6.64;75.94;103187.28;5071205;28;20099;-83
2021/11/15 00:07:14;;;;;;;4.15;2.03;;;;;;;6.63;76.00;103180.19;5072468;28;20089;-81
2021/11/15 00:09:40;;;;;;;3.83;2.50;;;;;;;6.62;76.06;103189.31;5069511;28;20028;-82
2021/11/15 00:12:06;;;;;;;2.88;1.90;;;;;;;6.61;76.10;103187.66;5094640;28;20019;-83
2021/11/15 00:14:32;;;;;;;4.75;2.20;;;;;;;6.61;76.08;103174.09;5095803;28;20084;-82
2021/11/15 00:16:57;;;;;;;4.68;2.05;;;;;;;6.64;75.88;103175.59;5094553;28;20020;-82
2021/11/15 00:19:22;;;;;;;3.20;2.13;;;;;;;6.64;75.83;103178.31;5094470;28;20035;-81
2021/11/15 00:21:48;;;;;;;3.58;2.30;;;;;;;6.63;75.82;103169.34;5093007;28;20028;-83
2021/11/15 00:24:13;;;;;;;4.97;2.22;;;;;;;6.62;75.95;103173.06;5091933;28;20024;-81
2021/11/15 00:26:39;;;;;;;3.22;2.22;;;;;;;6.62;75.82;103159.50;5079249;28;20036;-82
2021/11/15 00:29:04;;;;;;;3.35;2.13;;;;;;;6.61;75.80;103163.25;5090594;28;20081;-81
2021/11/15 00:31:30;;;;;;;4.72;2.17;;;;;;;6.61;75.84;103163.25;5092774;28;20020;-82
2021/11/15 00:33:55;;;;;;;3.15;2.05;;;;;;;6.59;75.92;103159.91;5092492;28;20465;-81
2021/11/15 00:36:20;;;;;;;4.80;2.47;;;;;;;6.59;75.78;103159.91;5092558;28;20046;-82
2021/11/15 00:38:46;;;;;;;3.95;2.30;;;;;;;6.59;75.82;103159.91;5091366;28;20023;-82
2021/11/15 00:41:11;;;;;;;6.50;2.92;;;;;;;6.59;76.02;103151.75;5092708;28;20024;-82
2021/11/15 00:43:37;;;;;;;5.35;2.45;;;;;;;6.60;75.76;103150.75;5079516;28;20054;-82
2021/11/15 00:46:04;;;;;;;2.92;1.98;;;;;;;6.60;75.62;103145.34;5086247;28;20028;-81
2021/11/15 00:48:29;;;;;;;4.75;2.13;;;;;;;6.61;75.83;103140.75;5072501;28;20042;-81
2021/11/15 00:50:55;;;;;;;5.65;2.33;;;;;;;6.61;75.89;103147.00;5071333;28;20091;-82
2021/11/15 00:53:20;;;;;;;5.55;2.38;;;;;;;6.60;75.66;103156.19;5071256;28;20400;-81
2021/11/15 00:55:46;;;;;;;3.85;2.17;;;;;;;6.59;75.93;103154.47;5072341;28;20040;-81
2021/11/15 00:58:11;;;;;;;2.25;1.70;;;;;;;6.60;76.11;103148.03;5072135;28;20032;-83
2021/11/15 01:00:38;;;;;;;4.40;2.10;;;;;;;6.59;75.92;103153.63;5071151;28;20025;-82
2021/11/15 01:03:06;;;;;;;3.60;2.30;;;;;;;6.58;75.93;103154.69;5072109;28;20024;-82
2021/11/15 01:05:32;;;;;;;4.43;2.40;;;;;;;6.57;76.04;103151.09;5071106;28;20036;-82
2021/11/15 01:07:58;;;;;;;3.83;1.98;;;;;;;6.57;75.69;103161.94;5071075;28;20037;-82
2021/11/15 01:10:23;;;;;;;5.28;2.40;;;;;;;6.57;76.00;103161.09;5072100;28;20025;-82
2021/11/15 01:12:49;;;;;;;4.30;2.65;;;;;;;6.59;76.01;103162.59;5070916;28;20021;-82
2021/11/15 01:15:17;;;;;;;3.47;2.15;;;;;;;6.58;75.93;103157.38;5071209;28;20025;-81
2021/11/15 01:17:42;;;;;;;3.05;2.30;;;;;;;6.58;76.08;103155.50;5074763;28;20024;-82
2021/11/15 01:20:10;;;;;;;5.00;3.00;;;;;;;6.59;75.79;103169.91;5074639;28;20374;-81
2021/11/15 01:22:35;;;;;;;4.35;2.88;;;;;;;6.59;75.76;103169.91;5065977;28;20034;-82
2021/11/15 01:25:00;;;;;;;4.68;2.33;;;;;;;6.59;76.09;103165.31;5096137;28;20023;-82
2021/11/15 01:27:26;;;;;;;3.85;2.25;;;;;;;6.58;75.81;103163.66;5096005;28;20023;-82
2021/11/15 01:29:52;;;;;;;4.82;2.90;;;;;;;6.57;76.03;103159.22;5096201;28;20031;-81
2021/11/15 01:32:17;;;;;;;3.95;2.25;;;;;;;6.58;75.79;103163.66;5094756;28;20092;-82
2021/11/15 01:34:43;;;;;;;4.45;2.35;;;;;;;6.58;75.72;103158.22;5098356;28;20188;-82
2021/11/15 01:37:08;;;;;;;4.15;2.75;;;;;;;6.57;75.88;103156.53;5116943;28;20034;-82
2021/11/15 01:39:34;;;;;;;2.90;2.03;;;;;;;6.58;76.09;103155.50;5117972;28;20126;-80
2021/11/15 01:41:59;;;;;;;5.32;2.67;;;;;;;6.57;75.39;103161.94;5117277;28;20024;-80
2021/11/15 01:44:24;;;;;;;2.95;2.40;;;;;;;6.57;75.79;103161.09;5101546;28;20020;-82
2021/11/15 01:46:50;;;;;;;3.72;2.78;;;;;;;6.56;75.97;103152.16;5081810;28;20534;-83
2021/11/15 01:49:16;;;;;;;3.97;2.63;;;;;;;6.56;75.90;103162.16;5080643;28;20028;-81
2021/11/15 01:51:42;;;;;;;5.50;2.50;;;;;;;6.54;75.74;103159.63;5076875;28;20050;-81
2021/11/15 01:54:07;;;;;;;3.88;2.53;;;;;;;6.55;75.77;103160.47;5094270;28;20478;-81
2021/11/15 01:56:33;;;;;;;3.72;2.53;;;;;;;6.55;76.13;103174.03;5095491;28;20023;-82
2021/11/15 01:59:01;;;;;;;4.75;2.60;;;;;;;6.55;75.88;103163.19;5095641;28;20020;-82
2021/11/15 02:01:27;;;;;;;3.00;2.38;;;;;;;6.54;75.98;103165.03;5092371;28;20066;-82
2021/11/15 02:03:52;;;;;;;4.32;2.65;;;;;;;6.55;75.92;103160.47;5083261;28;20429;-81
2021/11/15 02:06:18;;;;;;;6.07;3.08;;;;;;;6.54;75.79;103156.91;5081267;28;20032;-82
2021/11/15 02:08:43;;;;;;;4.28;2.30;;;;;;;6.54;75.87;103151.47;5073541;28;20017;-83
2021/11/15 02:11:09;;;;;;;4.20;2.80;;;;;;;6.55;75.97;103158.59;5073813;28;20028;-81
2021/11/15 02:13:34;;;;;;;4.65;2.55;;;;;;;6.55;76.39;103161.31;5074596;28;20040;-83
2021/11/15 02:16:00;;;;;;;4.15;2.40;;;;;;;6.55;76.02;103158.59;5073662;28;20035;-82
2021/11/15 02:18:26;;;;;;;3.30;2.38;;;;;;;6.55;75.96;103165.91;5073679;28;20025;-81
2021/11/15 02:20:59;;;;;;;4.60;2.55;;;;;;;6.56;76.40;103160.28;5074818;28;20021;-81
2021/11/15 02:23:26;;;;;;;4.85;2.50;;;;;;;6.57;76.02;103163.81;5074917;28;20020;-81
2021/11/15 02:25:52;;;;;;;4.65;2.45;;;;;;;6.55;76.32;103157.78;5073412;28;20086;-81
2021/11/15 02:28:26;;;;;;;3.90;2.10;;;;;;;6.53;76.13;103155.25;5068970;28;20028;-82
2021/11/15 02:30:51;;;;;;;4.38;2.30;;;;;;;6.52;76.17;103148.16;5093530;28;20032;-81
2021/11/15 02:33:17;;;;;;;4.03;2.63;;;;;;;6.53;76.10;103149.81;5094949;28;20042;-83
2021/11/15 02:35:42;;;;;;;5.65;3.13;;;;;;;6.54;76.53;103147.94;5094498;28;20020;-81
2021/11/15 02:38:08;;;;;;;3.83;3.08;;;;;;;6.55;76.28;103146.94;5094908;28;20608;-83
2021/11/15 02:40:35;;;;;;;3.45;2.53;;;;;;;6.57;76.30;103140.25;5093568;28;20380;-82
2021/11/15 02:43:00;;;;;;;5.05;3.13;;;;;;;6.57;76.26;103140.25;5094602;28;20473;-82
2021/11/15 02:45:26;;;;;;;3.97;2.50;;;;;;;6.56;76.42;103133.16;5084323;28;20036;-81
2021/11/15 02:47:51;;;;;;;4.43;2.80;;;;;;;6.56;76.13;103141.31;5089357;28;20066;-81
2021/11/15 02:50:19;;;;;;;4.88;3.10;;;;;;;6.54;76.51;103132.50;5094537;28;20354;-81
2021/11/15 02:52:46;;;;;;;7.45;2.85;;;;;;;6.54;76.50;103132.50;5093160;28;20024;-82
2021/11/15 02:55:11;;;;;;;3.75;2.97;;;;;;;6.56;76.50;103140.47;5094556;28;20027;-81
2021/11/15 02:57:37;;;;;;;4.00;2.97;;;;;;;6.56;76.43;103138.59;5094274;28;20028;-81
2021/11/15 03:00:04;;;;;;;4.97;3.53;;;;;;;6.55;76.33;103136.09;5094161;28;20016;-82
2021/11/15 03:02:29;;;;;;;5.00;3.75;;;;;;;6.52;76.32;103145.44;5094473;28;20023;-81
2021/11/15 03:04:55;;;;;;;6.03;3.00;;;;;;;6.53;76.42;103133.56;5092803;28;20020;-81
2021/11/15 03:07:20;;;;;;;5.72;3.63;;;;;;;6.54;76.70;103140.66;5094166;28;20354;-82
2021/11/15 03:09:46;;;;;;;6.53;3.67;;;;;;;6.57;76.74;103136.72;5092603;28;20020;-80
2021/11/15 03:12:11;;;;;;;5.30;3.13;;;;;;;6.57;76.41;103134.84;5094012;28;20031;-80
2021/11/15 03:14:36;;;;;;;6.65;4.32;;;;;;;6.57;76.57;103137.56;5092653;28;20427;-79
2021/11/15 03:17:02;;;;;;;5.53;3.70;;;;;;;6.54;76.86;103132.50;5093773;28;20020;-82
2021/11/15 03:19:28;;;;;;;5.05;3.67;;;;;;;6.52;76.68;103129.19;5065778;28;20070;-82
2021/11/15 03:21:53;;;;;;;5.25;3.70;;;;;;;6.51;76.97;103134.78;5073480;28;20401;-80
2021/11/15 03:24:18;;;;;;;6.18;4.35;;;;;;;6.51;77.02;103130.19;5073449;28;20085;-80
2021/11/15 03:26:44;;;;;;;7.00;3.85;;;;;;;6.51;76.73;103130.19;5072351;28;20153;-80
2021/11/15 03:29:09;;;;;;;7.32;4.10;;;;;;;6.51;76.95;103134.78;5061511;28;20024;-80
2021/11/15 03:31:35;;;;;;;4.82;3.47;;;;;;;6.51;76.84;103140.19;5092269;28;20077;-80
2021/11/15 03:34:05;;;;;;;5.47;4.00;;;;;;;6.52;76.81;103131.00;5093453;28;20368;-80
2021/11/15 03:36:32;;;;;;;5.63;4.35;;;;;;;6.55;76.77;103119.81;5093458;28;20028;-80
2021/11/15 03:38:58;;;;;;;4.70;3.67;;;;;;;6.55;76.87;103130.66;5093270;28;20077;-81
2021/11/15 03:41:26;;;;;;;9.57;4.10;;;;;;;6.53;76.88;103130.84;5091447;28;20098;-81
2021/11/15 03:43:52;;;;;;;5.63;3.47;;;;;;;6.54;76.90;103118.97;5093268;28;20024;-83
2021/11/15 03:46:18;;;;;;;4.55;3.30;;;;;;;6.54;77.03;103118.97;5079059;28;20061;-81
2021/11/15 03:48:43;;;;;;;6.97;4.10;;;;;;;6.56;76.90;103116.06;5066409;28;20024;-81
2021/11/15 03:51:09;;;;;;;4.97;3.30;;;;;;;6.57;76.79;103117.75;5071734;28;20505;-80
2021/11/15 03:53:37;;;;;;;4.82;3.60;;;;;;;6.55;76.69;103120.66;5071901;28;20032;-82
2021/11/15 03:56:05;;;;;;;3.88;2.95;;;;;;;6.55;77.02;103115.25;5071871;28;20028;-82
2021/11/15 03:58:30;;;;;;;5.80;3.70;;;;;;;6.55;77.13;103119.81;5072748;28;20542;-81
2021/11/15 04:00:58;;;;;;;5.22;3.00;;;;;;;6.55;77.26;103115.25;5072912;28;20025;-81
2021/11/15 04:03:33;;;;;;;5.55;3.08;;;;;;;6.57;77.30;103113.16;5071506;28;20095;-82
2021/11/15 04:06:03;;;;;;;6.65;3.10;;;;;;;6.58;77.05;103117.56;5067635;28;20024;-81
2021/11/15 04:08:29;;;;;;;4.15;3.00;;;;;;;6.59;77.07;103115.69;5057390;28;20019;-81
2021/11/15 04:10:55;;;;;;;4.93;3.25;;;;;;;6.60;77.35;103104.66;5071622;28;20028;-81
2021/11/15 04:13:23;;;;;;;3.95;2.85;;;;;;;6.61;77.13;103102.78;5071220;28;20048;-82
2021/11/15 04:15:50;;;;;;;3.90;3.05;;;;;;;6.62;77.48;103102.59;5071521;28;20020;-82
2021/11/15 04:18:22;;;;;;;3.33;2.53;;;;;;;6.63;77.22;103107.00;5072622;28;20025;-80
2021/11/15 04:20:48;;;;;;;;;;;;;;;6.65;77.61;103106.78;5073001;28;20024;-82
2021/11/15 04:23:13;;;;;;;5.63;2.72;;;;;;;6.65;77.17;103110.34;5072570;28;20057;-81
2021/11/15 04:25:39;;;;;;;4.18;2.65;;;;;;;6.64;77.10;103108.66;5072548;28;20028;-81
2021/11/15 04:28:04;;;;;;;3.55;2.60;;;;;;;6.61;77.26;103109.06;5071293;28;20035;-82
2021/11/15 04:30:32;;;;;;;6.90;3.28;;;;;;;6.61;77.39;103114.47;5072290;28;20024;-82
2021/11/15 04:32:59;;;;;;;5.18;2.90;;;;;;;6.61;77.56;103114.47;5072707;28;20091;-81
2021/11/15 04:35:25;;;;;;;3.85;2.58;;;;;;;6.61;77.83;103109.06;5070079;28;20031;-80
2021/11/15 04:37:50;;;;;;;3.85;2.55;;;;;;;6.59;77.56;103102.97;5091713;28;20028;-81
2021/11/15 04:40:16;;;;;;;4.45;3.25;;;;;;;6.59;77.51;103100.25;5092708;28;20024;-82
2021/11/15 04:42:41;;;;;;;5.63;3.40;;;;;;;6.58;77.71;103097.75;5092465;28;20023;-82
2021/11/15 04:45:07;;;;;;;4.45;2.63;;;;;;;6.56;77.64;103105.22;5084015;28;20429;-82
2021/11/15 04:47:32;;;;;;;4.80;3.58;;;;;;;6.57;78.00;103102.31;5085018;28;20489;-82
2021/11/15 04:49:58;;;;;;;5.65;2.75;;;;;;;6.57;78.10;103096.88;5072797;28;20020;-81
2021/11/15 04:52:23;;;;;;;6.43;3.30;;;;;;;6.58;78.26;103101.31;5073166;28;20025;-82
2021/11/15 04:54:49;;;;;;;5.90;3.53;;;;;;;6.59;78.44;103094.00;5075138;28;20025;-81
2021/11/15 04:57:15;;;;;;;5.47;2.90;;;;;;;6.58;78.08;103087.75;5076342;28;20028;-81
2021/11/15 04:59:40;;;;;;;7.80;3.42;;;;;;;6.55;78.37;103093.56;5075310;28;20104;-82
2021/11/15 05:02:06;;;;;;;5.70;3.50;;;;;;;6.52;78.52;103085.81;5076458;28;20095;-82
2021/11/15 05:04:31;;;;;;;5.35;2.83;;;;;;;6.50;78.33;103085.16;5074888;28;20031;-81
2021/11/15 05:06:57;;;;;;;5.47;3.05;;;;;;;6.49;78.52;103097.00;5075947;28;20070;-81
2021/11/15 05:09:22;;;;;;;4.03;2.90;;;;;;;6.48;78.74;103091.78;5076326;28;20024;-82
2021/11/15 05:11:48;;;;;;;8.45;2.90;;;;;;;6.47;78.85;103090.97;5075077;28;20012;-81
2021/11/15 05:14:13;;;;;;;5.65;3.13;;;;;;;6.47;79.26;103080.13;5094942;28;20048;-81
2021/11/15 05:16:38;;;;;;;4.15;2.70;;;;;;;6.44;79.42;103077.78;5094890;28;20031;-82
2021/11/15 05:19:04;;;;;;;5.22;3.10;;;;;;;6.45;79.32;103074.03;5096277;28;20023;-82
2021/11/15 05:21:29;;;;;;;6.07;3.42;;;;;;;6.44;79.58;103069.66;5096051;28;20028;-82
2021/11/15 05:23:55;;;;;;;4.05;3.03;;;;;;;6.42;79.60;103072.53;5059037;28;20032;-82
2021/11/15 05:26:21;;;;;;;8.02;3.83;;;;;;;6.41;79.55;103070.88;5075835;28;20027;-81
2021/11/15 05:28:47;;;;;;;7.60;3.90;;;;;;;6.41;80.01;103070.88;5074349;28;20427;-82
2021/11/15 05:31:12;;;;;;;5.95;3.65;;;;;;;6.43;80.21;103073.38;5075548;28;20497;-80
2021/11/15 05:33:37;;;;;;;7.47;2.95;;;;;;;6.44;80.38;103067.78;5075513;28;20032;-81
2021/11/15 05:36:03;;;;;;;5.25;3.38;;;;;;;6.44;80.42;103064.25;5075645;28;20016;-81
2021/11/15 05:38:28;;;;;;;4.47;2.90;;;;;;;6.46;80.44;103070.28;5074355;28;20028;-81
2021/11/15 05:40:55;;;;;;;8.07;3.63;;;;;;;6.48;80.27;103060.09;5075368;28;20024;-81
2021/11/15 05:43:20;;;;;;;5.38;3.55;;;;;;;6.46;80.52;103073.00;5074405;28;20107;-81
2021/11/15 05:45:46;;;;;;;7.60;3.75;;;;;;;6.47;80.39;103058.44;5088077;28;20031;-82
2021/11/15 05:48:12;;;;;;;6.03;3.67;;;;;;;6.47;80.66;103063.03;5076542;28;20020;-81
2021/11/15 05:50:38;;;;;;;4.65;3.38;;;;;;;6.45;80.74;103055.06;5074089;28;20051;-81
2021/11/15 05:53:03;;;;;;;4.93;3.33;;;;;;;6.45;80.82;103063.19;5074266;28;20472;-82
2021/11/15 05:55:29;;;;;;;6.10;3.55;;;;;;;6.45;81.12;103057.78;5095476;28;20027;-82
2021/11/15 05:57:54;;;;;;;7.43;3.92;;;;;;;6.45;81.19;103060.50;5095282;28;20031;-81
2021/11/15 06:00:23;;;;;;;7.95;4.28;;;;;;;6.43;81.40;103057.97;5094235;28;20023;-81
2021/11/15 06:02:48;;;;;;;4.95;3.30;;;;;;;6.42;81.66;103060.88;5094738;28;20073;-82
2021/11/15 06:05:14;;;;;;;6.38;4.05;;;;;;;6.40;81.62;103061.03;5093461;28;20016;-81
2021/11/15 06:07:40;;;;;;;5.88;3.30;;;;;;;6.38;81.85;103065.84;5095224;28;20032;-81
2021/11/15 06:10:06;;;;;;;7.32;3.80;;;;;;;6.39;82.11;103064.81;5093860;28;20024;-80
2021/11/15 06:12:32;;;;;;;6.35;3.53;;;;;;;6.39;82.09;103067.50;5094100;28;20390;-80
2021/11/15 06:14:57;;;;;;;7.30;4.20;;;;;;;6.37;82.02;103066.03;5094975;28;20044;-80
2021/11/15 06:17:22;;;;;;;6.07;4.05;;;;;;;6.37;82.35;103064.13;5093947;28;20385;-81
2021/11/15 06:19:48;;;;;;;8.15;4.35;;;;;;;6.37;82.73;103063.31;5063957;28;20033;-80
2021/11/15 06:22:13;;;;;;;7.25;4.97;;;;;;;6.37;82.78;103060.59;5074699;28;20024;-80
2021/11/15 06:24:41;;;;;;;6.32;4.20;;;;;;;6.35;82.98;103070.78;5073491;28;20032;-79
2021/11/15 06:27:07;;;;;;;7.20;4.03;;;;;;;6.34;82.69;103069.09;5073360;28;20515;-79
2021/11/15 06:29:32;;;;;;;8.25;4.65;;;;;;;6.34;83.12;103066.41;5073369;28;20032;-82
2021/11/15 06:31:58;;;;;;;7.07;4.68;;;;;;;6.32;83.25;103065.75;5074387;28;20074;-81
2021/11/15 06:34:23;;;;;;;6.15;4.55;;;;;;;6.31;83.13;103064.91;5074553;28;20025;-80
2021/11/15 06:36:49;;;;;;;7.40;4.97;;;;;;;6.33;83.45;103068.28;5073305;28;20024;-82
2021/11/15 06:39:14;;;;;;;7.38;4.13;;;;;;;6.34;83.56;103069.09;5074415;28;20234;-81
2021/11/15 06:41:40;;;;;;;6.80;4.25;;;;;;;6.34;83.63;103066.41;5074624;28;20461;-81
2021/11/15 06:44:06;;;;;;;7.60;4.22;;;;;;;6.33;83.38;103067.41;5072931;28;20043;-80
2021/11/15 06:46:32;;;;;;;8.50;5.00;;;;;;;6.33;83.51;103056.56;5088483;28;20073;-81
2021/11/15 06:48:57;;;;;;;7.25;4.28;;;;;;;6.33;83.63;103059.28;5073000;28;20020;-80
2021/11/15 06:51:24;;;;;;;7.68;3.85;;;;;;;6.34;83.83;103067.22;5073970;28;20469;-79
2021/11/15 06:53:49;;;;;;;8.88;4.43;;;;;;;6.34;84.07;103075.38;5074132;28;20021;-79
2021/11/15 06:56:14;;;;;;;9.68;4.82;;;;;;;6.36;83.94;103067.06;5073861;28;20032;-80
2021/11/15 06:58:40;;;;;;;6.28;4.57;;;;;;;6.36;84.00;103067.06;5072800;28;20040;-81
2021/11/15 07:01:06;;;;;;;9.80;5.13;;;;;;;6.35;84.24;103066.19;5072818;28;20034;-80
2021/11/15 07:03:31;;;;;;;8.23;4.72;;;;;;;6.35;84.12;103065.34;5073790;28;20017;-80
2021/11/15 07:05:56;;;;;;;7.35;4.32;;;;;;;6.35;84.18;103059.94;5072572;28;20035;-80
2021/11/15 07:08:22;;;;;;;9.05;5.10;;;;;;;6.34;84.61;103069.09;5072674;28;20065;-80
2021/11/15 07:10:47;;;;;;;9.23;4.88;;;;;;;6.35;84.56;103065.34;5094201;28;20073;-81
2021/11/15 07:13:13;;;;;;;9.35;5.30;;;;;;;6.35;84.36;103065.34;5092468;28;20056;-80
2021/11/15 07:15:40;;;;;;;8.27;4.30;;;;;;;6.36;84.62;103072.47;5092553;28;20028;-80
2021/11/15 07:18:05;;;;;;;7.25;5.00;;;;;;;6.36;84.52;103070.59;5092679;28;20028;-80
2021/11/15 07:20:31;;;;;;;8.38;4.47;;;;;;;6.38;84.71;103064.97;5093650;28;20031;-81
2021/11/15 07:22:56;;;;;;;7.15;4.28;;;;;;;6.39;84.54;103075.63;5092586;28;20107;-80
2021/11/15 07:25:21;;;;;;;8.68;4.28;;;;;;;6.38;84.72;103067.69;5093516;28;20032;-80
2021/11/15 07:27:47;;;;;;;6.53;4.63;;;;;;;6.40;84.82;103065.63;5093838;28;20020;-80
2021/11/15 07:30:13;;;;;;;7.72;4.70;;;;;;;6.40;84.94;103060.22;5060825;28;20037;-80
2021/11/15 07:32:39;;;;;;;8.48;4.25;;;;;;;6.40;84.81;103062.91;5072223;28;20070;-80
2021/11/15 07:35:04;;;;;;;7.38;4.63;;;;;;;6.40;85.17;103069.19;5086296;28;20062;-80
2021/11/15 07:37:30;;;;;;;5.43;3.65;;;;;;;6.40;85.01;103062.91;5092166;28;20016;-80
2021/11/15 07:39:55;;;;;;;7.47;4.57;;;;;;;6.42;85.29;103066.28;5093509;28;20019;-80
2021/11/15 07:42:21;;;;;;;9.95;5.38;;;;;;;6.44;85.10;103064.25;5072586;28;20418;-81
2021/11/15 07:44:46;;;;;;;6.18;4.55;;;;;;;6.45;85.34;103057.78;5077566;28;20016;-80
2021/11/15 07:47:14;;;;;;;9.52;5.10;;;;;;;6.45;85.08;103055.91;5081598;28;20035;-81
2021/11/15 07:49:39;;;;;;;8.65;4.40;;;;;;;6.45;85.05;103061.31;5055863;28;20067;-80
2021/11/15 07:52:05;;;;;;;8.60;4.82;;;;;;;6.48;85.21;103065.53;5092145;28;20024;-80
2021/11/15 07:54:30;;;;;;;11.60;5.05;;;;;;;6.51;85.48;103062.44;5093161;28;20331;-80
2021/11/15 07:56:56;;;;;;;6.72;4.57;;;;;;;6.51;85.50;103059.72;5091995;28;20032;-79
2021/11/15 07:59:21;;;;;;;10.02;4.88;;;;;;;6.54;85.20;103080.19;5062676;28;20020;-80
2021/11/15 08:01:47;;;;;;;9.25;4.20;;;;;;;6.54;85.51;103078.31;5072763;28;20039;-81
2021/11/15 08:04:12;;;;;;;8.10;4.32;;;;;;;6.57;85.70;103067.06;5073151;28;20497;-80
2021/11/15 08:06:37;;;;;;;6.93;3.90;;;;;;;6.59;85.52;103070.44;5072683;28;20025;-80
2021/11/15 08:09:03;;;;;;;7.25;4.20;;;;;;;6.61;85.53;103070.28;5063601;28;20020;-81
2021/11/15 08:11:32;;;;;;;6.20;4.07;;;;;;;6.61;85.32;103076.53;5092911;28;20076;-81
2021/11/15 08:13:58;;;;;;;8.23;4.25;;;;;;;6.60;85.69;103064.00;5091682;28;20084;-80
2021/11/15 08:16:23;;;;;;;8.18;5.18;;;;;;;6.62;85.65;103070.06;5093034;28;20026;-80
2021/11/15 08:18:49;;;;;;;8.48;4.75;;;;;;;6.62;85.40;103061.09;5092846;28;20028;-80
2021/11/15 08:21:14;;;;;;;9.63;4.20;;;;;;;6.64;85.39;103069.88;5091722;28;20039;-80
2021/11/15 08:23:43;;;;;;;7.28;4.32;;;;;;;6.64;85.43;103062.59;5091699;28;20044;-80
2021/11/15 08:26:28;;;;;;;6.28;4.05;;;;;;;6.67;85.42;103059.47;5092340;28;20047;-79
2021/11/15 08:29:14;;;;;;;6.88;4.18;;;;;;;6.70;85.61;103060.97;5091532;28;20091;-81
2021/11/15 08:31:40;;;;;;;7.60;4.40;;;;;;;6.72;85.63;103060.78;5091483;28;20047;-80
2021/11/15 08:34:06;;;;;;;8.05;4.40;;;;;;;6.72;85.40;103056.22;5056036;28;20393;-80
2021/11/15 08:36:31;;;;;;;5.88;3.30;;;;;;;6.76;85.19;103059.38;5071523;28;20025;-80
2021/11/15 08:39:11;;;;;;;8.38;4.30;;;;;;;6.76;85.47;103060.19;5072360;28;20020;-80
2021/11/15 08:41:39;;;;;;;7.50;4.13;;;;;;;6.77;85.22;103059.19;5072597;28;20028;-81
2021/11/15 08:44:06;;;;;;;5.75;3.67;;;;;;;6.80;85.33;103056.09;5072411;28;20071;-80
2021/11/15 08:46:31;;;;;;;6.13;3.83;;;;;;;6.80;85.37;103058.81;5086801;28;20048;-80
2021/11/15 08:48:59;;;;;;;4.95;3.45;;;;;;;6.84;85.44;103053.81;5071378;28;20024;-80
2021/11/15 08:51:25;;;;;;;5.60;3.28;;;;;;;6.89;85.42;103048.66;5071104;28;20024;-79
2021/11/15 08:53:51;;;;;;;7.20;3.97;;;;;;;6.92;85.20;103040.13;5063656;28;20370;-79
2021/11/15 08:56:17;;;;;;;5.07;3.55;;;;;;;6.96;85.14;103046.03;5091066;28;20028;-79
2021/11/15 08:58:43;;;;;;;7.72;4.15;;;;;;;6.99;85.05;103040.22;5092528;28;20148;-79
2021/11/15 09:01:08;;;;;;;6.85;3.65;;;;;;;7.01;85.09;103030.84;5091411;28;20016;-78
2021/11/15 09:03:37;;;;;;;5.68;3.58;;;;;;;7.00;84.99;103023.72;5091450;28;20035;-79
2021/11/15 09:06:03;;;;;;;6.68;3.75;;;;;;;7.01;84.59;103022.72;5091369;28;20031;-80
2021/11/15 09:08:28;;;;;;;5.63;3.45;;;;;;;7.01;84.87;103024.56;5091062;28;20016;-80
2021/11/15 09:10:53;;;;;;;6.43;3.40;;;;;;;6.98;84.14;103028.50;5092496;28;20435;-80
2021/11/15 09:13:19;;;;;;;6.88;3.42;;;;;;;6.98;84.61;103019.53;5092217;28;20074;-80
2021/11/15 09:15:44;;;;;;;5.38;4.05;;;;;;;6.97;84.48;103026.84;5092775;28;20024;-79
2021/11/15 09:18:11;;;;;;;6.25;3.25;;;;;;;6.98;84.21;103020.38;5091190;28;20476;-81
2021/11/15 09:20:36;;;;;;;6.35;3.30;;;;;;;6.99;84.33;103022.06;5092206;28;20061;-80
2021/11/15 09:23:02;;;;;;;4.28;3.25;;;;;;;7.01;84.16;103021.84;5091152;28;20028;-79
2021/11/15 09:25:28;;;;;;;6.65;2.90;;;;;;;7.01;84.44;103020.00;5060238;28;20016;-79
2021/11/15 09:27:53;;;;;;;9.05;3.55;;;;;;;7.03;84.24;103020.63;5092267;28;20474;-79
2021/11/15 09:30:19;;;;;;;6.50;3.58;;;;;;;7.04;84.17;103021.47;5090888;28;20031;-79
2021/11/15 09:32:44;;;;;;;6.68;3.45;;;;;;;7.03;83.66;103020.63;5092246;28;20043;-80
2021/11/15 09:35:10;;;;;;;4.65;2.83;;;;;;;7.07;83.78;103019.22;5091137;28;20036;-79
2021/11/15 09:37:35;;;;;;;4.50;2.72;;;;;;;7.08;83.95;103029.00;5091512;28;20016;-80
2021/11/15 09:40:01;;;;;;;12.25;3.38;;;;;;;7.09;84.07;103019.88;5094662;28;20024;-79
2021/11/15 09:42:26;;;;;;;6.85;2.90;;;;;;;7.10;83.64;103016.09;5094476;28;20381;-80
2021/11/15 09:44:52;;;;;;;6.25;3.28;;;;;;;7.10;83.68;103013.38;5089334;28;20032;-79
2021/11/15 09:47:17;;;;;;;5.65;2.85;;;;;;;7.09;83.43;103019.88;5075637;28;20024;-78
2021/11/15 09:49:43;;;;;;;5.63;3.10;;;;;;;7.13;83.63;103014.03;5074085;28;20017;-79
2021/11/15 09:52:09;;;;;;;7.07;3.45;;;;;;;7.13;83.33;103008.63;5074318;28;20029;-79
2021/11/15 09:54:34;;;;;;;7.45;3.35;;;;;;;7.14;83.37;103013.81;5074087;28;20024;-79
2021/11/15 09:57:00;;;;;;;4.60;2.70;;;;;;;7.14;83.37;103013.81;5075707;28;20020;-78
2021/11/15 09:59:28;;;;;;;4.45;3.65;;;;;;;7.13;83.47;103008.63;5074413;28;20024;-79
2021/11/15 10:01:53;;;;;;;4.32;2.88;;;;;;;7.16;83.19;103005.50;5075309;28;20017;-78
2021/11/15 10:04:19;;;;;;;5.05;3.17;;;;;;;7.16;82.98;103008.22;5076762;28;20466;-79
2021/11/15 10:06:45;;;;;;;4.22;3.00;;;;;;;7.13;83.15;103014.88;5076764;28;20030;-78
2021/11/15 10:09:11;;;;;;;6.03;2.97;;;;;;;7.14;83.11;103010.28;5076283;28;20507;-80
2021/11/15 10:11:47;;;;;;;4.15;2.55;;;;;;;7.15;82.96;103009.25;5073935;28;20095;-80
2021/11/15 10:14:13;;;;;;;4.95;3.03;;;;;;;7.15;83.01;103007.38;5074932;28;20060;-79
2021/11/15 10:16:39;;;;;;;4.30;2.67;;;;;;;7.16;82.98;103002.78;5074778;28;20055;-78
2021/11/15 10:19:08;;;;;;;6.75;3.08;;;;;;;7.17;82.78;102999.88;5074857;28;20020;-78
2021/11/15 10:21:47;;;;;;;4.88;2.65;;;;;;;7.18;82.61;102984.44;5075231;28;20020;-78
2021/11/15 10:24:18;;;;;;;5.07;2.90;;;;;;;7.18;82.67;102973.59;5081334;28;20027;-80
2021/11/15 10:26:53;;;;;;;4.70;2.70;;;;;;;7.18;82.87;102974.44;5095112;28;20125;-79
2021/11/15 10:29:21;;;;;;;4.82;3.22;;;;;;;7.19;82.45;102972.56;5094288;28;20016;-80
2021/11/15 10:31:59;;;;;;;4.28;2.30;;;;;;;7.20;82.44;102971.50;5094978;28;20115;-80
2021/11/15 10:34:44;;;;;;;4.95;2.70;;;;;;;7.21;82.19;102967.78;5075217;28;20160;-79
2021/11/15 10:37:20;;;;;;;7.22;2.90;;;;;;;7.22;82.26;102966.72;5073287;28;20489;-80
2021/11/15 10:39:47;;;;;;;10.18;3.50;;;;;;;7.23;82.27;102961.13;5074426;28;20442;-79
2021/11/15 10:42:14;;;;;;;5.00;3.10;;;;;;;7.23;82.23;102961.13;5071752;28;20402;-80
2021/11/15 10:44:53;;;;;;;4.63;2.92;;;;;;;7.24;82.04;102962.78;5091269;28;20016;-80
2021/11/15 10:47:25;;;;;;;7.85;3.70;;;;;;;7.27;82.11;102961.56;5069497;28;20040;-80
2021/11/15 10:50:11;;;;;;;7.28;3.17;;;;;;;7.28;82.40;102961.38;5093052;28;20023;-80
2021/11/15 10:52:39;;;;;;;4.15;2.83;;;;;;;7.30;81.89;102970.13;5094865;28;20027;-80
2021/11/15 10:55:07;;;;;;;7.90;3.28;;;;;;;7.31;81.90;102952.81;5057211;28;20025;-80
2021/11/15 10:57:35;;;;;;;3.85;2.80;;;;;;;7.32;81.85;102953.66;5074506;28;20039;-80
2021/11/15 11:00:07;;;;;;;8.63;3.25;;;;;;;7.32;82.15;102953.66;5074419;28;20012;-79
2021/11/15 11:02:37;;;;;;;5.93;2.85;;;;;;;7.32;82.07;102948.22;5094597;28;20076;-80
2021/11/15 11:05:11;;;;;;;6.43;3.35;;;;;;;7.33;81.67;102937.16;5059188;28;20032;-79
2021/11/15 11:07:37;;;;;;;6.65;3.35;;;;;;;7.33;81.69;102945.31;5074236;28;20038;-80
2021/11/15 11:10:09;;;;;;;7.68;3.70;;;;;;;7.33;81.88;102944.47;5074028;28;20052;-79
2021/11/15 11:12:36;;;;;;;6.55;4.35;;;;;;;7.35;81.98;102947.81;5072815;28;20074;-79
2021/11/15 11:15:39;;;;;;;7.30;3.50;;;;;;;7.33;81.39;102949.91;5073686;28;20040;-80
2021/11/15 11:18:10;;;;;;;;;;;;;;;7.33;81.23;102944.47;5073410;28;20024;-80
2021/11/15 11:26:26;;;;;;;7.68;3.30;;;;;;;7.37;81.41;102950.34;5070300;28;20029;-80
2021/11/15 11:28:58;;;;;;;5.45;3.03;;;;;;;7.38;81.05;102947.44;5073579;28;20218;-80
2021/11/15 11:31:24;;;;;;;4.53;3.08;;;;;;;7.37;81.08;102950.34;5067318;28;20550;-80
2021/11/15 11:33:50;;;;;;;5.68;3.08;;;;;;;7.37;81.25;102940.34;5075458;28;20500;-80
2021/11/15 11:36:15;;;;;;;6.55;3.45;;;;;;;7.38;81.38;102941.16;5093706;28;20094;-80
2021/11/15 11:38:41;;;;;;;8.05;4.05;;;;;;;7.38;81.02;102938.44;5092305;28;20036;-80